Time;durP1;ratioP1;P1;durP2;ratioP2;P2;SDS_P1;SDS_P2;PMS_P1;PMS_P2;Temp;Humidity;BMP_temperature;BMP_pressure;BME280_temperature;BME280_humidity;BME280_pressure;Samples;Min_cycle;Max_cycle;Signal;HPM_P1;HPM_P2
2023/04/10 00:02:12;;;;;;;17.98;10.75;;;;;;;7.21;77.35;101916.03;5042573;28;22547;-69
2023/04/10 00:04:37;;;;;;;17.92;10.20;;;;;;;7.14;77.40;101912.22;5059537;28;20048;-70
2023/04/10 00:07:03;;;;;;;19.67;11.43;;;;;;;7.19;77.53;101904.13;5057373;28;20048;-68
2023/04/10 00:09:30;;;;;;;19.25;10.75;;;;;;;7.25;76.88;101905.47;5059233;28;20039;-69
2023/04/10 00:11:55;;;;;;;18.77;10.13;;;;;;;7.14;77.48;101908.78;5048563;28;20056;-69
2023/04/10 00:14:23;;;;;;;20.10;10.90;;;;;;;7.11;77.99;101904.69;5059277;28;20694;-69
2023/04/10 00:16:49;;;;;;;17.58;10.18;;;;;;;7.14;77.75;101901.91;5055723;28;20023;-69
2023/04/10 00:19:15;;;;;;;19.83;11.00;;;;;;;7.20;77.64;101898.06;5057171;28;20103;-70
2023/04/10 00:21:40;;;;;;;17.88;10.13;;;;;;;7.15;77.37;101894.97;5055666;28;20111;-69
2023/04/10 00:24:06;;;;;;;18.50;9.60;;;;;;;7.14;77.46;101886.41;5056676;28;20041;-69
2023/04/10 00:26:32;;;;;;;17.35;9.63;;;;;;;7.11;78.00;101884.03;5038400;28;20574;-69
2023/04/10 00:28:57;;;;;;;20.00;9.77;;;;;;;7.08;77.67;101884.25;5040336;28;20524;-69
2023/04/10 00:31:23;;;;;;;16.98;9.35;;;;;;;7.15;77.21;101882.88;5040904;28;20135;-69
2023/04/10 00:33:48;;;;;;;16.20;9.63;;;;;;;7.07;77.62;101881.78;5037742;28;20036;-69
2023/04/10 00:36:14;;;;;;;18.25;9.68;;;;;;;7.07;77.69;101882.63;5049847;28;20033;-69
2023/04/10 00:38:40;;;;;;;15.13;9.57;;;;;;;7.11;77.97;101884.03;5059680;28;20633;-69
2023/04/10 00:41:06;;;;;;;16.00;9.45;;;;;;;7.02;78.41;101885.50;5058642;28;20489;-69
2023/04/10 00:43:31;;;;;;;17.65;9.65;;;;;;;7.03;78.67;101883.75;5054546;28;22965;-69
2023/04/10 00:45:57;;;;;;;18.33;9.90;;;;;;;6.96;79.02;101879.94;5037491;28;20043;-69
2023/04/10 00:48:22;;;;;;;16.65;9.43;;;;;;;6.93;79.51;101875.84;5039612;28;20941;-69
2023/04/10 00:50:48;;;;;;;15.90;9.15;;;;;;;7.04;79.16;101880.22;5054424;28;20055;-69
2023/04/10 00:53:13;;;;;;;17.48;9.85;;;;;;;6.95;79.04;101868.81;5052888;28;20516;-69
2023/04/10 00:55:39;;;;;;;17.48;9.85;;;;;;;6.95;79.57;101867.97;5038475;28;20085;-69
2023/04/10 00:58:05;;;;;;;16.95;9.68;;;;;;;6.93;79.12;101860.38;5043963;28;20070;-70
2023/04/10 01:00:31;;;;;;;18.75;9.88;;;;;;;6.94;79.51;101863.75;5029897;28;20036;-68
2023/04/10 01:02:59;;;;;;;17.45;9.63;;;;;;;6.86;79.59;101851.41;5037959;28;20577;-69
2023/04/10 01:05:31;;;;;;;16.38;9.55;;;;;;;6.87;79.21;101849.63;5043871;28;20060;-69
2023/04/10 01:08:07;;;;;;;19.50;9.90;;;;;;;6.91;79.11;101849.34;5056220;28;20093;-69
2023/04/10 01:10:50;;;;;;;17.50;9.85;;;;;;;6.91;79.16;101851.06;5056623;28;20024;-69
2023/04/10 01:13:34;;;;;;;19.02;10.77;;;;;;;6.76;79.52;101840.91;5024463;28;20058;-69
2023/04/10 01:16:41;;;;;;;17.88;10.13;;;;;;;6.71;79.93;101839.56;5054578;28;20032;-69
2023/04/10 01:19:20;;;;;;;19.15;10.55;;;;;;;6.79;79.87;101832.13;5057525;28;20050;-69
2023/04/10 01:21:47;;;;;;;17.95;10.05;;;;;;;6.75;80.11;101839.25;5038897;28;20044;-69
2023/04/10 01:24:43;;;;;;;18.98;10.98;;;;;;;6.70;80.25;101832.75;5040905;28;20032;-69
2023/04/10 01:27:24;;;;;;;23.15;11.60;;;;;;;6.69;80.69;101825.97;5060030;28;20048;-70
2023/04/10 01:29:56;;;;;;;17.50;9.98;;;;;;;6.63;81.06;101827.22;5059462;28;20024;-69
2023/04/10 01:32:23;;;;;;;18.67;10.87;;;;;;;6.76;81.17;101817.69;5059217;28;20066;-69
2023/04/10 01:34:56;;;;;;;23.60;10.68;;;;;;;6.79;80.15;101821.81;5057589;28;20049;-69
2023/04/10 01:37:29;;;;;;;22.35;12.10;;;;;;;6.74;80.36;101819.56;5058760;28;20052;-69
2023/04/10 01:40:00;;;;;;;19.02;10.50;;;;;;;6.71;80.45;101811.22;5047988;28;20025;-69
2023/04/10 01:42:29;;;;;;;20.02;10.82;;;;;;;6.62;80.85;101804.94;5060965;28;20051;-71
2023/04/10 01:44:57;;;;;;;19.75;11.05;;;;;;;6.70;81.03;101807.78;5065869;28;20048;-71
2023/04/10 01:47:24;;;;;;;19.60;10.80;;;;;;;6.66;80.75;101813.28;5029710;28;20036;-71
2023/04/10 01:49:51;;;;;;;19.98;10.90;;;;;;;6.65;80.96;101809.88;5051809;28;20032;-71
2023/04/10 01:52:18;;;;;;;18.63;10.05;;;;;;;6.70;80.56;101810.38;5048070;28;20561;-71
2023/04/10 01:54:48;;;;;;;19.38;10.52;;;;;;;6.61;80.94;101808.44;5046045;28;20029;-71
2023/04/10 01:57:21;;;;;;;19.63;10.88;;;;;;;6.56;81.54;101818.25;5048520;28;20051;-71
2023/04/10 01:59:52;;;;;;;20.13;10.65;;;;;;;6.61;81.38;101806.69;5065986;28;20612;-71
2023/04/10 02:02:18;;;;;;;18.35;10.43;;;;;;;6.53;81.39;101814.09;5029352;28;20039;-71
2023/04/10 02:04:47;;;;;;;17.20;10.25;;;;;;;6.43;82.07;101808.75;5034529;28;20037;-71
2023/04/10 02:07:19;;;;;;;18.10;9.93;;;;;;;6.49;81.74;101807.53;5043858;28;20033;-71
2023/04/10 02:09:56;;;;;;;21.80;11.48;;;;;;;6.50;81.52;101800.59;5042649;28;20029;-71
2023/04/10 02:12:29;;;;;;;18.58;10.82;;;;;;;6.49;81.71;101804.94;5081261;23;20044;-72
2023/04/10 02:14:58;;;;;;;18.48;10.50;;;;;;;6.36;82.08;101806.72;5083954;28;20034;-72
2023/04/10 02:17:27;;;;;;;16.35;9.52;;;;;;;6.37;82.11;101813.53;5082829;28;20444;-73
2023/04/10 02:19:58;;;;;;;17.88;9.55;;;;;;;6.38;81.85;101808.25;5048916;28;20028;-72
2023/04/10 02:22:24;;;;;;;20.38;10.63;;;;;;;6.50;81.69;101813.50;5047118;28;20028;-72
2023/04/10 02:24:51;;;;;;;18.85;10.45;;;;;;;6.53;80.77;101810.72;5070095;28;20029;-71
2023/04/10 02:27:27;;;;;;;24.33;10.95;;;;;;;6.61;80.68;101804.13;5066417;28;20043;-72
2023/04/10 02:29:52;;;;;;;18.90;10.43;;;;;;;6.50;81.47;101801.44;5065308;28;20032;-72
2023/04/10 02:32:18;;;;;;;17.77;9.63;;;;;;;6.41;81.53;101794.34;5066218;28;20044;-72
2023/04/10 02:34:45;;;;;;;20.17;10.40;;;;;;;6.46;81.95;101792.28;5049805;28;20048;-72
2023/04/10 02:37:10;;;;;;;20.00;10.48;;;;;;;6.34;82.09;101793.09;5044971;28;20575;-72
2023/04/10 02:39:36;;;;;;;18.65;10.00;;;;;;;6.30;82.05;101795.06;5065324;28;20032;-72
2023/04/10 02:42:01;;;;;;;18.50;10.65;;;;;;;6.27;82.30;101800.41;5060948;28;20048;-72
2023/04/10 02:44:27;;;;;;;18.83;10.38;;;;;;;6.34;82.53;101791.34;5047395;28;20028;-73
2023/04/10 02:46:52;;;;;;;27.42;10.77;;;;;;;6.24;82.13;101790.34;5063547;28;20046;-72
2023/04/10 02:49:19;;;;;;;16.92;9.57;;;;;;;6.23;82.64;101793.81;5064926;28;20032;-72
2023/04/10 02:51:44;;;;;;;31.35;12.18;;;;;;;6.20;83.10;101792.28;5061986;28;20021;-72
2023/04/10 02:54:10;;;;;;;18.67;10.65;;;;;;;6.24;83.00;101783.44;5048224;28;20044;-73
2023/04/10 02:56:37;;;;;;;20.42;10.70;;;;;;;6.11;83.36;101795.47;5062474;28;20028;-72
2023/04/10 02:59:02;;;;;;;20.10;11.25;;;;;;;6.08;84.13;101789.72;5047416;28;20544;-73
2023/04/10 03:01:29;;;;;;;19.15;10.55;;;;;;;6.08;84.02;101787.13;5045749;28;20081;-72
2023/04/10 03:03:56;;;;;;;26.90;12.18;;;;;;;6.12;84.36;101780.84;5034372;28;20028;-72
2023/04/10 03:06:28;;;;;;;22.42;11.90;;;;;;;6.01;84.62;101779.00;5065205;28;20021;-72
2023/04/10 03:08:56;;;;;;;21.35;10.90;;;;;;;5.91;85.21;101777.91;5045501;28;20067;-74
2023/04/10 03:11:21;;;;;;;23.73;12.20;;;;;;;6.00;85.19;101770.44;5032060;28;20056;-72
2023/04/10 03:13:47;;;;;;;20.98;11.80;;;;;;;5.87;85.15;101771.34;5066043;28;20036;-74
2023/04/10 03:16:14;;;;;;;19.55;11.73;;;;;;;5.93;85.15;101764.00;5062190;28;20059;-72
2023/04/10 03:18:41;;;;;;;20.83;12.13;;;;;;;5.97;84.86;101759.50;5062594;28;20029;-72
2023/04/10 03:21:07;;;;;;;23.58;11.52;;;;;;;5.87;85.25;101764.44;5048758;28;20032;-72
2023/04/10 03:23:32;;;;;;;23.08;12.68;;;;;;;5.86;85.66;101752.50;5061038;28;20036;-72
2023/04/10 03:25:58;;;;;;;22.17;12.15;;;;;;;5.86;85.45;101749.91;5048649;28;20020;-72
2023/04/10 03:28:26;;;;;;;23.55;12.95;;;;;;;5.91;85.71;101744.47;5065271;28;20028;-71
2023/04/10 03:30:52;;;;;;;23.63;11.93;;;;;;;5.90;85.57;101742.81;5055254;28;20028;-75
2023/04/10 03:33:17;;;;;;;22.48;12.52;;;;;;;5.80;86.13;101746.00;5048997;28;20032;-72
2023/04/10 03:35:45;;;;;;;22.38;12.45;;;;;;;5.75;86.69;101734.38;5047112;28;20162;-73
2023/04/10 03:38:11;;;;;;;26.02;12.35;;;;;;;5.72;86.80;101737.94;5043882;28;20044;-72
2023/04/10 03:40:36;;;;;;;22.08;12.40;;;;;;;5.62;87.27;101737.72;5065708;28;20033;-72
2023/04/10 03:43:04;;;;;;;23.13;12.63;;;;;;;5.70;87.19;101733.84;5031665;28;20063;-72
2023/04/10 03:45:32;;;;;;;22.75;12.75;;;;;;;5.65;87.14;101731.56;5050890;28;20082;-71
2023/04/10 03:47:59;;;;;;;28.35;12.25;;;;;;;5.72;87.31;101732.81;5060072;28;20079;-71
2023/04/10 03:50:25;;;;;;;21.52;11.98;;;;;;;5.66;87.62;101728.88;5066780;28;20032;-72
2023/04/10 03:52:56;;;;;;;21.52;11.95;;;;;;;5.65;87.44;101734.97;5047399;28;20090;-71
2023/04/10 03:55:23;;;;;;;24.98;12.18;;;;;;;5.58;87.93;101738.88;5046611;28;20032;-71
2023/04/10 03:57:50;;;;;;;22.80;12.10;;;;;;;5.55;87.97;101733.91;5055753;28;20093;-72
2023/04/10 04:00:19;;;;;;;24.98;13.13;;;;;;;5.55;88.30;101731.34;5065296;28;20033;-72
2023/04/10 04:02:49;;;;;;;24.02;12.32;;;;;;;5.50;88.67;101737.72;5068857;28;20543;-72
2023/04/10 04:05:43;;;;;;;24.23;13.15;;;;;;;5.56;88.90;101730.44;5054492;28;20039;-72
2023/04/10 04:08:23;;;;;;;25.27;12.25;;;;;;;5.46;89.02;101730.22;5062944;28;20520;-72
2023/04/10 04:11:07;;;;;;;23.25;11.63;;;;;;;5.41;89.80;101731.44;5063896;28;20178;-74
2023/04/10 04:13:46;;;;;;;25.15;12.70;;;;;;;5.42;89.43;101726.16;5046275;28;20032;-71
2023/04/10 04:16:31;;;;;;;24.90;12.38;;;;;;;5.52;89.05;101728.13;5050579;28;20044;-71
2023/04/10 04:19:26;;;;;;;23.95;12.52;;;;;;;5.44;89.27;101723.50;5009900;28;20096;-71
2023/04/10 04:22:11;;;;;;;24.15;12.95;;;;;;;5.46;88.98;101721.66;5062076;28;20174;-74
2023/04/10 04:24:56;;;;;;;24.10;12.75;;;;;;;5.56;88.07;101716.75;5068204;28;20803;-71
2023/04/10 04:27:34;;;;;;;22.98;12.30;;;;;;;5.51;88.33;101722.19;5061647;28;20036;-73
2023/04/10 04:30:07;;;;;;;23.65;12.88;;;;;;;5.47;88.54;101718.16;5051855;28;20128;-71
2023/04/10 04:32:44;;;;;;;24.08;13.10;;;;;;;5.47;88.39;101716.41;5045697;28;20079;-71
2023/04/10 04:35:32;;;;;;;23.60;13.00;;;;;;;5.42;88.46;101715.88;5030136;28;20410;-72
2023/04/10 04:38:15;;;;;;;20.98;11.13;;;;;;;5.32;89.12;101714.03;5048049;28;20036;-71
2023/04/10 04:40:57;;;;;;;27.30;13.00;;;;;;;5.36;88.93;101710.31;5063229;28;21259;-72
2023/04/10 04:43:41;;;;;;;21.60;11.63;;;;;;;5.37;88.91;101714.53;5060869;28;20728;-72
2023/04/10 04:46:25;;;;;;;23.52;13.07;;;;;;;5.34;88.78;101715.56;5065297;28;20094;-72
2023/04/10 04:49:07;;;;;;;25.55;11.88;;;;;;;5.23;89.09;101720.56;5061191;28;20196;-72
2023/04/10 04:51:51;;;;;;;22.00;11.98;;;;;;;5.32;88.99;101722.56;5050226;28;20048;-72
2023/04/10 04:54:40;;;;;;;22.05;12.82;;;;;;;5.33;88.79;101718.22;5058131;28;20643;-72
2023/04/10 04:57:25;;;;;;;20.60;11.35;;;;;;;5.32;88.98;101719.16;5044276;28;20070;-72
2023/04/10 05:00:15;;;;;;;24.73;12.32;;;;;;;5.34;88.29;101712.16;5062991;28;20032;-72
2023/04/10 05:03:01;;;;;;;24.83;13.30;;;;;;;5.37;88.74;101710.22;5031986;28;20058;-72
2023/04/10 05:05:47;;;;;;;23.73;13.77;;;;;;;5.50;88.63;101717.97;5047892;28;20072;-72
2023/04/10 05:08:47;;;;;;;22.30;11.70;;;;;;;5.37;88.23;101717.09;5043940;28;20171;-71
2023/04/10 05:11:45;;;;;;;21.65;11.57;;;;;;;5.42;88.50;101715.06;5047599;28;20021;-71
2023/04/10 05:14:16;;;;;;;22.33;12.10;;;;;;;5.41;88.42;101713.44;5066743;28;20034;-71
2023/04/10 05:17:00;;;;;;;23.80;11.80;;;;;;;5.49;88.53;101716.31;5069482;28;20047;-72
2023/04/10 05:19:40;;;;;;;19.92;11.20;;;;;;;5.47;88.71;101707.88;5064453;28;20032;-72
2023/04/10 05:22:29;;;;;;;23.67;13.10;;;;;;;5.51;88.41;101711.88;5053381;28;20036;-72
2023/04/10 05:25:15;;;;;;;24.27;12.40;;;;;;;5.46;87.94;101714.78;5048571;28;20490;-73
2023/04/10 05:28:03;;;;;;;24.23;12.50;;;;;;;5.56;88.03;101714.16;5046796;28;20051;-72
2023/04/10 05:30:46;;;;;;;24.67;12.60;;;;;;;5.62;88.51;101709.44;5046394;28;20025;-71
2023/04/10 05:33:30;;;;;;;23.50;12.20;;;;;;;5.54;88.20;101711.69;5043199;28;20035;-72
2023/04/10 05:36:09;;;;;;;25.85;13.15;;;;;;;5.61;88.34;101714.66;5031436;28;20078;-72
2023/04/10 05:38:52;;;;;;;24.83;12.30;;;;;;;5.65;87.48;101708.38;5047203;28;20091;-72
2023/04/10 05:41:33;;;;;;;20.98;11.35;;;;;;;5.72;88.09;101699.34;5048846;28;20029;-71
2023/04/10 05:44:21;;;;;;;20.83;11.20;;;;;;;5.82;87.27;101700.41;5025808;28;20051;-72
2023/04/10 05:47:21;;;;;;;22.10;11.20;;;;;;;5.82;87.00;101696.97;5062318;28;20111;-72
2023/04/10 05:49:59;;;;;;;22.05;11.82;;;;;;;5.98;86.28;101687.31;5069422;28;20482;-71
2023/04/10 05:52:49;;;;;;;19.65;11.02;;;;;;;6.01;85.80;101679.41;5045205;28;20390;-72
2023/04/10 05:55:34;;;;;;;22.85;10.23;;;;;;;6.02;85.27;101673.31;5046471;28;20115;-72
2023/04/10 05:58:32;;;;;;;18.75;11.32;;;;;;;6.09;85.14;101671.16;5036977;28;20045;-71
2023/04/10 06:01:12;;;;;;;22.92;11.25;;;;;;;6.05;85.44;101669.72;5049318;28;20024;-72
2023/04/10 06:03:58;;;;;;;20.40;11.60;;;;;;;6.22;84.19;101686.59;5054162;28;20059;-71
2023/04/10 06:06:25;;;;;;;17.23;10.13;;;;;;;6.26;83.97;101690.59;5049978;28;20025;-71
2023/04/10 06:08:51;;;;;;;19.60;10.95;;;;;;;6.28;83.18;101691.31;5032867;28;20132;-72
2023/04/10 06:11:16;;;;;;;22.73;11.63;;;;;;;6.42;83.00;101680.03;5047285;28;20033;-72
2023/04/10 06:13:46;;;;;;;21.67;11.30;;;;;;;6.55;82.62;101677.44;5065625;28;20067;-71
2023/04/10 06:16:13;;;;;;;15.82;9.63;;;;;;;6.58;81.62;101680.63;5066267;28;20037;-71
2023/04/10 06:18:40;;;;;;;19.45;11.02;;;;;;;6.76;81.34;101673.34;5065421;28;20056;-72
2023/04/10 06:21:06;;;;;;;17.20;9.55;;;;;;;6.79;79.89;101673.09;5046638;28;20032;-71
2023/04/10 06:23:31;;;;;;;17.65;9.93;;;;;;;6.86;80.01;101677.84;5044608;28;20063;-71
2023/04/10 06:25:57;;;;;;;18.75;9.98;;;;;;;7.01;79.67;101685.28;5049595;28;20032;-72
2023/04/10 06:28:22;;;;;;;19.17;9.95;;;;;;;7.07;79.67;101678.84;5068209;28;20043;-71
2023/04/10 06:30:53;;;;;;;15.55;9.43;;;;;;;7.19;78.46;101675.38;5047918;28;20383;-71
2023/04/10 06:33:23;;;;;;;16.33;9.65;;;;;;;7.35;77.67;101675.06;5050166;28;20063;-72
2023/04/10 06:35:50;;;;;;;16.13;9.82;;;;;;;7.49;77.27;101666.28;5047930;28;20029;-72
2023/04/10 06:38:16;;;;;;;20.48;9.48;;;;;;;7.54;76.33;101661.63;5034177;28;20047;-72
2023/04/10 06:40:42;;;;;;;18.13;9.60;;;;;;;7.72;76.62;101662.00;5065828;28;20028;-72
2023/04/10 06:43:07;;;;;;;15.52;9.10;;;;;;;7.90;76.52;101664.94;5065053;28;20037;-72
2023/04/10 06:45:36;;;;;;;17.88;9.77;;;;;;;7.96;75.04;101655.91;5033681;28;20033;-71
2023/04/10 06:48:02;;;;;;;20.88;9.80;;;;;;;8.02;74.54;101664.94;5048097;28;20577;-72
2023/04/10 06:50:28;;;;;;;14.98;9.27;;;;;;;8.17;73.72;101663.75;5060568;28;20127;-71
2023/04/10 06:52:55;;;;;;;18.35;10.00;;;;;;;8.41;73.49;101658.44;5048173;28;20498;-72
2023/04/10 06:55:20;;;;;;;16.60;9.82;;;;;;;8.53;73.04;101657.50;5069691;28;20032;-72
2023/04/10 06:57:46;;;;;;;16.85;9.65;;;;;;;8.61;72.39;101656.06;5064957;28;20036;-71
2023/04/10 07:00:12;;;;;;;34.85;10.20;;;;;;;8.74;71.92;101652.38;5066981;28;20029;-72
2023/04/10 07:02:38;;;;;;;14.50;8.73;;;;;;;8.96;70.70;101648.03;5065629;28;20029;-72
2023/04/10 07:05:03;;;;;;;17.25;9.52;;;;;;;9.20;70.27;101652.19;5067683;28;20051;-72
2023/04/10 07:07:32;;;;;;;17.48;9.23;;;;;;;9.36;69.43;101649.94;5051204;28;20458;-71
2023/04/10 07:09:57;;;;;;;17.50;9.35;;;;;;;9.51;68.80;101650.44;5047056;28;20066;-72
2023/04/10 07:12:23;;;;;;;16.77;10.20;;;;;;;9.50;68.79;101649.63;5046536;28;20040;-72
2023/04/10 07:14:48;;;;;;;17.10;9.80;;;;;;;9.49;68.20;101645.41;5051037;28;20032;-73
2023/04/10 07:17:14;;;;;;;16.98;9.90;;;;;;;9.36;68.37;101639.59;5048709;28;20055;-73
2023/04/10 07:19:39;;;;;;;17.60;9.02;;;;;;;9.36;68.81;101642.19;5064607;28;20090;-72
2023/04/10 07:22:05;;;;;;;17.13;9.75;;;;;;;9.46;69.04;101640.47;5043052;28;20055;-72
2023/04/10 07:24:31;;;;;;;15.02;9.60;;;;;;;9.70;68.30;101631.59;5067132;28;20029;-72
2023/04/10 07:26:57;;;;;;;19.40;8.85;;;;;;;9.80;67.77;101631.66;5064841;28;20086;-72
2023/04/10 07:29:22;;;;;;;17.75;8.70;;;;;;;10.00;67.53;101627.34;5032916;28;20052;-72
2023/04/10 07:31:48;;;;;;;15.88;9.27;;;;;;;10.14;66.77;101620.00;5049866;28;20108;-72
2023/04/10 07:34:13;;;;;;;16.83;9.55;;;;;;;10.41;65.95;101613.41;5048250;28;20394;-72
2023/04/10 07:36:39;;;;;;;18.52;10.20;;;;;;;10.80;64.27;101607.41;5068743;28;20040;-72
2023/04/10 07:39:04;;;;;;;17.02;9.05;;;;;;;10.83;63.18;101604.53;5067998;28;20051;-73
2023/04/10 07:41:30;;;;;;;14.77;9.50;;;;;;;11.06;62.95;101605.06;5068924;28;20032;-72
2023/04/10 07:43:55;;;;;;;15.25;8.70;;;;;;;11.16;62.76;101589.47;5066407;28;20071;-73
2023/04/10 07:46:21;;;;;;;16.33;8.75;;;;;;;11.72;60.75;101587.78;5070302;28;20071;-72
2023/04/10 07:48:46;;;;;;;15.15;8.77;;;;;;;11.77;60.21;101588.97;5066328;28;20509;-73
2023/04/10 07:51:13;;;;;;;16.48;8.40;;;;;;;11.57;59.58;101588.22;5070026;28;20039;-72
2023/04/10 07:53:38;;;;;;;16.20;8.75;;;;;;;11.65;59.56;101584.91;5062807;28;20035;-72
2023/04/10 07:56:05;;;;;;;16.92;9.77;;;;;;;11.64;60.33;101585.88;5048537;28;20033;-73
2023/04/10 07:58:32;;;;;;;14.35;8.63;;;;;;;11.64;61.02;101573.72;5066830;28;20526;-73
2023/04/10 08:00:57;;;;;;;13.98;7.97;;;;;;;11.65;59.70;101577.13;5065315;28;20140;-73
2023/04/10 08:03:23;;;;;;;17.42;8.60;;;;;;;11.57;59.67;101566.66;5065287;28;20119;-73
2023/04/10 08:05:48;;;;;;;17.15;8.65;;;;;;;11.68;59.79;101574.25;5062933;28;20086;-74
2023/04/10 08:08:15;;;;;;;16.25;8.68;;;;;;;11.86;59.82;101561.28;5058656;28;20972;-73
2023/04/10 08:10:40;;;;;;;15.57;8.25;;;;;;;11.93;58.57;101559.78;5063741;28;20040;-73
2023/04/10 08:13:06;;;;;;;15.05;8.25;;;;;;;11.90;58.52;101562.66;5056817;28;20072;-73
2023/04/10 08:15:31;;;;;;;13.25;8.15;;;;;;;11.90;58.46;101557.47;5027015;28;20037;-72
2023/04/10 08:17:57;;;;;;;14.63;7.97;;;;;;;12.08;58.89;101554.91;5045358;28;20525;-73
2023/04/10 08:20:22;;;;;;;11.85;7.68;;;;;;;11.91;58.24;101543.50;5046393;28;20371;-72
2023/04/10 08:22:48;;;;;;;14.23;7.97;;;;;;;11.84;57.96;101538.03;5066597;28;20045;-73
2023/04/10 08:25:14;;;;;;;12.68;8.00;;;;;;;11.89;58.49;101540.22;5065050;28;20029;-74
2023/04/10 08:27:39;;;;;;;16.25;7.72;;;;;;;11.79;58.73;101526.44;5060277;28;20490;-73
2023/04/10 08:30:05;;;;;;;13.32;7.45;;;;;;;11.97;58.73;101524.72;5030920;28;20064;-73
2023/04/10 08:32:31;;;;;;;12.98;6.88;;;;;;;11.90;58.92;101526.28;5058641;28;20521;-74
2023/04/10 08:34:56;;;;;;;12.43;7.65;;;;;;;11.82;58.42;101526.16;5045108;28;20036;-73
2023/04/10 08:37:22;;;;;;;12.02;6.68;;;;;;;11.99;58.42;101521.97;5063910;28;20036;-73
2023/04/10 08:39:47;;;;;;;14.05;7.35;;;;;;;12.46;57.15;101517.34;5062437;28;20028;-72
2023/04/10 08:42:13;;;;;;;11.65;7.20;;;;;;;12.76;56.34;101520.50;5064191;28;20110;-73
2023/04/10 08:44:40;;;;;;;11.43;7.78;;;;;;;13.17;55.82;101514.72;5044309;28;20037;-73
2023/04/10 08:47:07;;;;;;;12.25;7.55;;;;;;;13.54;53.72;101521.41;5044846;28;20045;-74
2023/04/10 08:49:55;;;;;;;12.63;7.15;;;;;;;14.10;52.48;101500.81;5065622;28;20044;-73
2023/04/10 08:52:25;;;;;;;13.10;7.75;;;;;;;14.19;51.42;101495.44;5062238;28;20059;-73
2023/04/10 08:54:54;;;;;;;11.32;7.03;;;;;;;14.88;51.46;101500.31;5062612;28;20082;-73
2023/04/10 08:57:21;;;;;;;14.05;7.90;;;;;;;14.90;49.69;101492.28;5042393;28;20097;-75
2023/04/10 08:59:47;;;;;;;10.48;6.82;;;;;;;15.03;50.08;101499.59;5062787;28;20032;-75
2023/04/10 09:02:13;;;;;;;13.93;7.38;;;;;;;14.83;50.01;101504.41;5045026;28;20059;-73
2023/04/10 09:04:38;;;;;;;12.90;7.15;;;;;;;15.03;50.59;101497.81;5064128;28;20028;-73
2023/04/10 09:07:04;;;;;;;11.38;7.15;;;;;;;15.03;50.37;101500.44;5063716;28;20070;-73
2023/04/10 09:09:33;;;;;;;12.63;6.85;;;;;;;14.64;50.96;101495.94;5048614;28;20125;-74
2023/04/10 09:11:59;;;;;;;11.98;6.70;;;;;;;14.78;51.73;101500.47;5046784;28;20123;-74
2023/04/10 09:14:28;;;;;;;10.63;6.72;;;;;;;14.39;52.06;101508.16;5062357;28;20113;-74
2023/04/10 09:17:08;;;;;;;13.20;6.97;;;;;;;14.46;52.03;101511.75;5062515;28;20090;-74
2023/04/10 09:19:34;;;;;;;10.27;6.50;;;;;;;14.35;51.39;101509.47;5058957;28;20055;-74
2023/04/10 09:21:59;;;;;;;9.25;6.22;;;;;;;14.31;51.43;101498.53;5062970;28;20064;-74
2023/04/10 09:24:25;;;;;;;9.65;6.38;;;;;;;14.60;52.61;101490.25;5064497;28;20032;-74
2023/04/10 09:26:51;;;;;;;9.35;6.22;;;;;;;14.55;51.69;101491.69;5060574;28;20098;-74
2023/04/10 09:29:17;;;;;;;8.05;5.32;;;;;;;14.62;50.66;101478.81;5059176;28;20040;-74
2023/04/10 09:31:45;;;;;;;11.07;6.10;;;;;;;14.76;50.99;101476.31;5065303;28;20039;-73
2023/04/10 09:34:12;;;;;;;11.48;5.95;;;;;;;14.91;51.11;101471.22;5065332;28;20040;-74
2023/04/10 09:36:39;;;;;;;9.10;5.55;;;;;;;14.98;51.48;101474.00;5063896;28;20041;-75
2023/04/10 09:39:05;;;;;;;9.70;5.13;;;;;;;15.06;49.07;101471.34;5063647;28;20028;-74
2023/04/10 09:41:31;;;;;;;7.22;4.40;;;;;;;15.14;48.76;101471.34;5062136;28;20394;-74
2023/04/10 09:44:10;;;;;;;8.48;5.60;;;;;;;15.24;48.21;101465.91;5059438;28;20036;-73
2023/04/10 09:46:37;;;;;;;7.78;4.35;;;;;;;15.19;47.17;101455.94;5043346;28;20048;-73
2023/04/10 09:49:06;;;;;;;5.95;4.55;;;;;;;15.35;47.46;101455.06;5063905;28;20040;-73
2023/04/10 09:51:33;;;;;;;6.65;4.30;;;;;;;15.19;46.64;101453.34;5042160;28;20044;-73
2023/04/10 09:54:00;;;;;;;9.43;4.45;;;;;;;15.09;46.83;101449.31;5043361;28;20039;-74
2023/04/10 09:56:27;;;;;;;9.85;5.43;;;;;;;14.87;48.22;101448.25;5060109;28;20036;-74
2023/04/10 09:58:57;;;;;;;7.45;4.43;;;;;;;14.92;48.40;101431.09;5045175;28;20033;-72
2023/04/10 10:01:24;;;;;;;9.98;5.20;;;;;;;14.96;48.58;101448.03;5060842;28;20592;-75
2023/04/10 10:03:52;;;;;;;8.45;4.57;;;;;;;15.06;48.15;101434.78;5061345;28;20028;-75
2023/04/10 10:06:17;;;;;;;6.00;4.20;;;;;;;15.06;47.51;101434.78;5062980;28;20013;-74
2023/04/10 10:08:44;;;;;;;7.10;4.05;;;;;;;14.89;46.90;101426.19;5044553;28;20043;-73
2023/04/10 10:11:12;;;;;;;6.20;3.85;;;;;;;14.82;46.63;101421.81;5063617;28;20036;-75
2023/04/10 10:13:43;;;;;;;12.73;4.40;;;;;;;14.89;46.70;101418.38;5058864;28;20041;-73
2023/04/10 10:16:20;;;;;;;6.68;4.05;;;;;;;14.90;46.60;101406.13;5061081;28;20501;-74
2023/04/10 10:19:15;;;;;;;7.10;4.05;;;;;;;15.08;47.59;101405.88;5041647;28;20040;-74
2023/04/10 10:21:43;;;;;;;5.25;3.45;;;;;;;15.30;47.32;101389.44;5045703;28;20044;-74
2023/04/10 10:24:11;;;;;;;8.05;3.85;;;;;;;15.53;47.18;101386.03;5060257;28;20041;-73
2023/04/10 10:26:39;;;;;;;9.43;3.85;;;;;;;15.68;46.27;101376.44;5046327;28;20024;-75
2023/04/10 10:29:10;;;;;;;5.95;3.50;;;;;;;15.61;46.99;101375.50;5056086;28;20398;-74
2023/04/10 10:31:36;;;;;;;6.70;4.25;;;;;;;15.68;46.73;101363.38;5061211;28;20711;-75
2023/04/10 10:34:04;;;;;;;5.35;3.72;;;;;;;15.60;46.40;101366.06;5063147;28;20032;-74
2023/04/10 10:36:33;;;;;;;7.25;4.07;;;;;;;15.64;47.51;101362.09;5061756;28;20037;-73
2023/04/10 10:39:27;;;;;;;6.47;4.32;;;;;;;15.72;46.99;101345.53;5060515;28;20037;-73
2023/04/10 10:42:11;;;;;;;7.72;4.95;;;;;;;15.58;49.15;101344.50;5044818;28;20024;-75
2023/04/10 10:44:44;;;;;;;8.32;4.90;;;;;;;15.49;49.08;101346.38;5064391;28;20032;-74
2023/04/10 10:47:18;;;;;;;8.93;5.00;;;;;;;15.57;49.74;101338.44;5025474;28;20494;-76
2023/04/10 10:50:01;;;;;;;7.03;4.88;;;;;;;15.74;49.16;101330.50;5065343;28;20479;-76
2023/04/10 10:52:40;;;;;;;7.43;4.82;;;;;;;15.53;49.33;101325.91;5065204;28;20064;-75
2023/04/10 10:55:21;;;;;;;8.68;4.93;;;;;;;15.37;48.83;101332.09;5065851;28;20036;-73
2023/04/10 10:57:54;;;;;;;7.13;4.45;;;;;;;15.41;48.94;101332.53;5065707;28;20486;-75
2023/04/10 11:00:21;;;;;;;7.00;4.90;;;;;;;15.49;49.09;101327.25;5065256;28;20112;-74
2023/04/10 11:03:05;;;;;;;5.63;4.03;;;;;;;15.57;49.10;101332.41;5063756;28;20044;-74
2023/04/10 11:05:54;;;;;;;9.23;5.10;;;;;;;15.43;48.82;101326.16;5048697;28;20115;-76
2023/04/10 11:08:34;;;;;;;9.70;4.78;;;;;;;15.47;49.64;101321.41;5027078;28;20060;-74
2023/04/10 11:11:16;;;;;;;7.38;4.50;;;;;;;15.63;48.98;101304.75;5047629;28;20032;-75
2023/04/10 11:14:04;;;;;;;8.30;4.30;;;;;;;15.82;49.39;101301.66;5061242;28;20036;-75
2023/04/10 11:16:31;;;;;;;6.80;4.18;;;;;;;15.93;49.95;101296.00;5043607;28;20041;-74
2023/04/10 11:19:05;;;;;;;5.63;3.78;;;;;;;15.98;47.38;101289.44;5066489;28;20033;-75
2023/04/10 11:21:31;;;;;;;4.72;2.95;;;;;;;15.98;46.55;101285.00;5068130;28;20036;-75
2023/04/10 11:23:56;;;;;;;8.10;3.05;;;;;;;16.11;45.97;101282.56;5069431;28;20024;-75
2023/04/10 11:29:11;;;;;;;4.70;2.90;;;;;;;16.24;46.64;101278.53;5044908;28;20055;-75
2023/04/10 11:31:37;;;;;;;9.48;4.93;;;;;;;16.19;45.31;101268.59;5047259;28;20074;-75
2023/04/10 11:34:05;;;;;;;11.50;6.88;;;;;;;16.28;45.71;101270.13;5047113;28;20094;-75
2023/04/10 11:36:32;;;;;;;9.43;5.43;;;;;;;16.29;45.35;101270.91;5049225;28;20032;-74
2023/04/10 11:39:01;;;;;;;5.18;3.30;;;;;;;16.32;45.15;101265.34;5048926;28;20036;-74
2023/04/10 11:41:35;;;;;;;5.38;3.15;;;;;;;16.27;45.12;101257.22;5065153;28;20060;-75